Time;durP1;ratioP1;P1;durP2;ratioP2;P2;SDS_P1;SDS_P2;PMS_P1;PMS_P2;Temp;Humidity;BMP_temperature;BMP_pressure;BME280_temperature;BME280_humidity;BME280_pressure;Samples;Min_cycle;Max_cycle;Signal;HPM_P1;HPM_P2
2023/10/17 00:01:10;;;;;;;;;;;;;;;;;;5145238;27;19974;-42
2023/10/17 00:03:37;;;;;;;;;;;;;;;;;;5145477;27;19927;-42
2023/10/17 00:06:03;;;;;;;;;;;;;;;;;;5145424;27;19934;-43
2023/10/17 00:08:32;;;;;;;;;;;;;;;;;;5144725;27;20022;-41
2023/10/17 00:10:58;;;;;;;;;;;;;;;;;;5143944;27;19981;-41
2023/10/17 00:13:31;;;;;;;;;;;;;;;;;;5144899;27;19924;-43
2023/10/17 00:15:58;;;;;;;;;;;;;;;;;;5145960;27;20414;-44
2023/10/17 00:18:25;;;;;;;;;;;;;;;;;;5144893;27;20384;-41
2023/10/17 00:20:51;;;;;;;;;;;;;;;;;;5144777;27;19927;-43
2023/10/17 00:23:20;;;;;;;;;;;;;;;;;;5145169;27;19927;-45
2023/10/17 00:25:45;;;;;;;;;;;;;;;;;;5145076;27;19951;-45
2023/10/17 00:28:11;;;;;;;;;;;;;;;;;;5144863;27;20060;-43
2023/10/17 00:30:38;;;;;;;;;;;;;;;;;;5144213;27;20111;-43
2023/10/17 00:33:05;;;;;;;;;;;;;;;;;;5144114;27;19927;-41
2023/10/17 00:35:38;;;;;;;;;;;;;;;;;;5135591;27;19927;-42
2023/10/17 00:38:07;;;;;;;;;;;;;;;;;;5150116;27;19923;-42
2023/10/17 00:41:05;;;;;;;;;;;;;;;;;;5123340;28;19927;-41
2023/10/17 00:43:19;;;;;;;;;;;;;;;;;;5119380;27;19966;-43
2023/10/17 00:45:45;;;;;;;;;;;;;;;;;;5144997;27;19969;-42
2023/10/17 00:48:17;;;;;;;;;;;;;;;;;;5138275;27;20422;-44
2023/10/17 00:50:43;;;;;;;;;;;;;;;;;;5122713;28;19976;-42
2023/10/17 00:53:08;;;;;;;;;;;;;;;;;;5119366;28;19927;-41
2023/10/17 00:55:35;;;;;;;;;;;;;;;;;;5130830;28;20006;-43
2023/10/17 00:58:00;;;;;;;;;;;;;;;;;;5130593;28;20370;-43
2023/10/17 01:00:36;;;;;;;;;;;;;;;;;;5129940;28;19974;-44
2023/10/17 01:03:02;;;;;;;;;;;;;;;;;;5130653;28;20419;-42
2023/10/17 01:05:28;;;;;;;;;;;;;;;;;;5130312;28;19927;-41
2023/10/17 01:07:53;;;;;;;;;;;;;;;;;;5130366;28;19970;-42
2023/10/17 01:10:24;;;;;;;;;;;;;;;;;;5128849;27;20018;-44
2023/10/17 01:12:53;;;;;;;;;;;;;;;;;;5108145;28;19947;-43
2023/10/17 01:15:19;;;;;;;;;;;;;;;;;;5128058;28;20363;-43
2023/10/17 01:17:44;;;;;;;;;;;;;;;;;;5130142;28;19946;-45
2023/10/17 01:20:15;;;;;;;;;;;;;;;;;;5129216;28;20376;-41
2023/10/17 01:22:42;;;;;;;;;;;;;;;;;;5130447;28;19963;-42
2023/10/17 01:25:18;;;;;;;;;;;;;;;;;;5130478;28;19927;-41
2023/10/17 01:27:44;;;;;;;;;;;;;;;;;;5130387;28;19966;-42
2023/10/17 01:30:10;;;;;;;;;;;;;;;;;;5129491;28;20406;-42
2023/10/17 01:32:35;;;;;;;;;;;;;;;;;;5129565;28;20007;-43
2023/10/17 01:35:02;;;;;;;;;;;;;;;;;;5136394;27;19998;-42
2023/10/17 01:37:27;;;;;;;;;;;;;;;;;;5145102;27;19931;-43
2023/10/17 01:39:53;;;;;;;;;;;;;;;;;;5109660;27;19963;-42
2023/10/17 01:42:20;;;;;;;;;;;;;;;;;;5109532;28;20306;-41
2023/10/17 01:44:45;;;;;;;;;;;;;;;;;;5120544;27;19924;-42
2023/10/17 01:47:10;;;;;;;;;;;;;;;;;;5130996;27;19927;-42
2023/10/17 01:49:36;;;;;;;;;;;;;;;;;;5128970;28;19966;-42
2023/10/17 01:52:01;;;;;;;;;;;;;;;;;;5129392;28;19954;-41
2023/10/17 01:54:29;;;;;;;;;;;;;;;;;;5130043;28;19927;-44
2023/10/17 01:57:05;;;;;;;;;;;;;;;;;;5129993;28;19924;-42
2023/10/17 01:59:32;;;;;;;;;;;;;;;;;;5129725;28;20006;-42
2023/10/17 02:01:59;;;;;;;;;;;;;;;;;;5130092;27;20003;-44
2023/10/17 02:04:25;;;;;;;;;;;;;;;;;;5129119;27;20063;-42
2023/10/17 02:06:50;;;;;;;;;;;;;;;;;;5130308;28;19923;-43
2023/10/17 02:12:01;;;;;;;;;;;;;;;;;;5108769;28;19928;-45
2023/10/17 02:14:26;;;;;;;;;;;;;;;;;;5118228;28;19962;-41
2023/10/17 02:16:52;;;;;;;;;;;;;;;;;;5129859;28;20030;-42
2023/10/17 02:19:33;;;;;;;;;;;;;;;;;;5113791;28;20155;-44
2023/10/17 02:21:58;;;;;;;;;;;;;;;;;;5108859;28;19971;-43
2023/10/17 02:24:25;;;;;;;;;;;;;;;;;;5117842;28;20018;-43
2023/10/17 02:27:00;;;;;;;;;;;;;;;;;;5130144;28;20431;-44
2023/10/17 02:29:26;;;;;;;;;;;;;;;;;;5113221;28;19950;-44
2023/10/17 02:31:52;;;;;;;;;;;;;;;;;;5109012;28;19966;-41
2023/10/17 02:34:22;;;;;;;;;;;;;;;;;;5123795;27;19935;-43
2023/10/17 02:36:47;;;;;;;;;;;;;;;;;;5143422;27;20268;-46
2023/10/17 02:39:12;;;;;;;;;;;;;;;;;;5121109;27;19924;-41
2023/10/17 02:41:38;;;;;;;;;;;;;;;;;;5108663;28;19998;-45
2023/10/17 02:44:03;;;;;;;;;;;;;;;;;;5113434;28;20072;-41
2023/10/17 02:46:29;;;;;;;;;;;;;;;;;;5131642;27;19975;-41
2023/10/17 02:48:54;;;;;;;;;;;;;;;;;;5115407;27;19977;-41
2023/10/17 02:53:56;;;;;;;;;;;;;;;;;;5188288;27;20423;-41
2023/10/17 02:56:21;;;;;;;;;;;;;;;;;;5187586;27;20279;-40
2023/10/17 02:59:21;;;;;;;;;;;;;;;;;;5175935;27;19923;-42
2023/10/17 03:01:32;;;;;;;;;;;;;;;;;;5149935;27;19927;-44
2023/10/17 03:03:58;;;;;;;;;;;;;;;;;;5169280;27;20030;-42
2023/10/17 03:06:23;;;;;;;;;;;;;;;;;;5187093;27;20452;-41
2023/10/17 03:08:51;;;;;;;;;;;;;;;;;;5175824;27;20633;-42
2023/10/17 03:11:17;;;;;;;;;;;;;;;;;;5165228;27;19962;-42
2023/10/17 03:13:43;;;;;;;;;;;;;;;;;;5166938;27;19966;-42
2023/10/17 03:16:25;;;;;;;;;;;;;;;;;;5187104;27;19927;-43
2023/10/17 03:18:51;;;;;;;;;;;;;;;;;;5175229;27;19934;-43
2023/10/17 03:21:18;;;;;;;;;;;;;;;;;;5165576;27;19923;-46
2023/10/17 03:23:46;;;;;;;;;;;;;;;;;;5166865;27;19923;-42
2023/10/17 03:26:12;;;;;;;;;;;;;;;;;;5187087;27;19962;-43
2023/10/17 03:28:40;;;;;;;;;;;;;;;;;;5177612;27;20018;-41
2023/10/17 03:31:10;;;;;;;;;;;;;;;;;;5165634;27;19962;-41
2023/10/17 03:33:40;;;;;;;;;;;;;;;;;;5165862;27;20363;-43
2023/10/17 03:36:05;;;;;;;;;;;;;;;;;;5174142;27;19974;-41
2023/10/17 03:38:31;;;;;;;;;;;;;;;;;;5178291;27;20362;-43
2023/10/17 03:41:06;;;;;;;;;;;;;;;;;;5186007;27;20022;-41
2023/10/17 03:43:38;;;;;;;;;;;;;;;;;;5166479;27;19971;-42
2023/10/17 03:46:05;;;;;;;;;;;;;;;;;;5165208;27;19923;-41
2023/10/17 03:48:32;;;;;;;;;;;;;;;;;;5164759;27;20389;-42
2023/10/17 03:51:08;;;;;;;;;;;;;;;;;;5164850;27;20237;-42
2023/10/17 03:53:42;;;;;;;;;;;;;;;;;;5165644;27;19966;-42
2023/10/17 03:56:11;;;;;;;;;;;;;;;;;;5164983;27;19931;-41
2023/10/17 03:58:49;;;;;;;;;;;;;;;;;;5155313;27;19966;-41
2023/10/17 04:01:18;;;;;;;;;;;;;;;;;;5144259;27;19927;-42
2023/10/17 04:03:43;;;;;;;;;;;;;;;;;;5139837;27;19927;-42
2023/10/17 04:08:56;;;;;;;;;;;;;;;;;;5187736;27;20400;-41
2023/10/17 04:13:50;;;;;;;;;;;;;;;;;;5186600;27;20334;-42
2023/10/17 04:16:17;;;;;;;;;;;;;;;;;;5145141;27;19934;-43
2023/10/17 04:18:45;;;;;;;;;;;;;;;;;;5164843;27;19965;-42
2023/10/17 04:21:18;;;;;;;;;;;;;;;;;;5186629;27;19978;-42
2023/10/17 04:23:43;;;;;;;;;;;;;;;;;;5186620;27;20016;-43
2023/10/17 04:26:17;;;;;;;;;;;;;;;;;;5167092;27;20555;-43
2023/10/17 04:28:55;;;;;;;;;;;;;;;;;;5178017;27;20310;-42
2023/10/17 04:31:25;;;;;;;;;;;;;;;;;;5185750;27;19967;-41
2023/10/17 04:33:56;;;;;;;;;;;;;;;;;;5167336;27;20291;-42
2023/10/17 04:36:21;;;;;;;;;;;;;;;;;;5171859;27;19971;-42
2023/10/17 04:38:55;;;;;;;;;;;;;;;;;;5177566;27;19934;-45
2023/10/17 04:41:40;;;;;;;;;;;;;;;;;;5184406;27;20370;-41
2023/10/17 04:44:15;;;;;;;;;;;;;;;;;;5163236;27;20273;-42
2023/10/17 04:46:49;;;;;;;;;;;;;;;;;;5144857;27;20207;-41
2023/10/17 04:49:18;;;;;;;;;;;;;;;;;;5157096;27;19970;-42
2023/10/17 04:51:43;;;;;;;;;;;;;;;;;;5144292;27;19923;-42
2023/10/17 04:54:20;;;;;;;;;;;;;;;;;;5144195;27;19927;-42
2023/10/17 04:56:55;;;;;;;;;;;;;;;;;;5144533;27;19923;-41
2023/10/17 04:59:39;;;;;;;;;;;;;;;;;;5159097;27;19927;-45
2023/10/17 05:07:34;;;;;;;;;;;;;;;;;;5172397;27;20436;-45
2023/10/17 06:17:00;;;;;;;;;;;;;;;;;;5139013;27;20228;-41
2023/10/17 06:19:18;;;;;;;;;;;;;;;;;;5118006;27;19970;-42
2023/10/17 06:30:26;;;;;;;;;;;;;;;;;;5141338;27;19930;-41
2023/10/17 06:32:49;;;;;;;;;;;;;;;;;;5139264;27;20390;-40
2023/10/17 06:35:23;;;;;;;;;;;;;;;;;;5156664;27;19926;-41
2023/10/17 06:37:49;;;;;;;;;;;;;;;;;;5147804;27;20660;-41
2023/10/17 06:40:16;;;;;;;;;;;;;;;;;;5153566;27;20414;-41
2023/10/17 06:42:48;;;;;;;;;;;;;;;;;;5151038;27;19930;-44
2023/10/17 06:45:18;;;;;;;;;;;;;;;;;;5127557;27;19923;-41
2023/10/17 06:47:56;;;;;;;;;;;;;;;;;;5131451;27;19923;-44
2023/10/17 06:53:11;;;;;;;;;;;;;;;;;;5105670;27;19927;-42
2023/10/17 06:55:43;;;;;;;;;;;;;;;;;;5124770;27;19970;-43
2023/10/17 06:58:09;;;;;;;;;;;;;;;;;;5112685;27;20317;-42
2023/10/17 07:00:51;;;;;;;;;;;;;;;;;;5127114;27;19927;-44
2023/10/17 07:03:24;;;;;;;;;;;;;;;;;;5113434;27;19969;-40
2023/10/17 07:05:50;;;;;;;;;;;;;;;;;;5115029;27;20630;-41
2023/10/17 07:08:16;;;;;;;;;;;;;;;;;;5105677;27;20563;-43
2023/10/17 07:10:58;;;;;;;;;;;;;;;;;;5111962;27;19932;-42
2023/10/17 07:13:24;;;;;;;;;;;;;;;;;;5106051;27;19966;-41
2023/10/17 07:15:52;;;;;;;;;;;;;;;;;;5120337;27;19923;-42
2023/10/17 07:18:51;;;;;;;;;;;;;;;;;;5129084;27;19927;-44
2023/10/17 07:21:55;;;;;;;;;;;;;;;;;;5114848;27;19927;-40
2023/10/17 07:23:49;;;;;;;;;;;;;;;;;;5106504;27;21153;-43
2023/10/17 07:26:18;;;;;;;;;;;;;;;;;;5119232;27;19927;-44
2023/10/17 07:28:43;;;;;;;;;;;;;;;;;;5129906;27;19930;-43
2023/10/17 07:31:11;;;;;;;;;;;;;;;;;;5129086;27;19928;-43
2023/10/17 07:33:36;;;;;;;;;;;;;;;;;;5132830;27;19939;-43
2023/10/17 07:36:03;;;;;;;;;;;;;;;;;;5131739;27;20030;-41
2023/10/17 07:38:30;;;;;;;;;;;;;;;;;;5124877;27;19928;-45
2023/10/17 07:41:09;;;;;;;;;;;;;;;;;;5121106;28;19932;-41
2023/10/17 07:43:35;;;;;;;;;;;;;;;;;;5116177;28;20455;-43
2023/10/17 07:46:06;;;;;;;;;;;;;;;;;;5118575;28;19931;-41
2023/10/17 07:48:31;;;;;;;;;;;;;;;;;;5109625;27;19950;-41
2023/10/17 07:50:59;;;;;;;;;;;;;;;;;;5106854;27;19923;-42
2023/10/17 07:53:26;;;;;;;;;;;;;;;;;;5115043;28;19924;-41
2023/10/17 07:55:52;;;;;;;;;;;;;;;;;;5118070;28;20030;-45
2023/10/17 07:58:31;;;;;;;;;;;;;;;;;;5114086;27;19924;-46
2023/10/17 08:00:56;;;;;;;;;;;;;;;;;;5104196;27;20427;-42
2023/10/17 08:03:27;;;;;;;;;;;;;;;;;;5104169;27;20190;-41
2023/10/17 08:06:08;;;;;;;;;;;;;;;;;;5109089;27;19935;-41
2023/10/17 08:08:34;;;;;;;;;;;;;;;;;;5109668;27;19924;-44
2023/10/17 08:10:59;;;;;;;;;;;;;;;;;;5109221;27;19976;-41
2023/10/17 08:13:26;;;;;;;;;;;;;;;;;;5111862;27;20327;-44
2023/10/17 08:15:53;;;;;;;;;;;;;;;;;;5109700;27;20384;-45
2023/10/17 08:18:22;;;;;;;;;;;;;;;;;;5112974;27;19958;-42
2023/10/17 08:23:34;;;;;;;;;;;;;;;;;;5100379;28;19972;-44
2023/10/17 08:26:00;;;;;;;;;;;;;;;;;;5117876;28;19978;-42
2023/10/17 08:28:50;;;;;;;;;;;;;;;;;;5109628;27;19928;-43
2023/10/17 08:34:12;;;;;;;;;;;;;;;;;;5088722;27;20705;-40
2023/10/17 08:42:05;;;;;;;;;;;;;;;;;;5095719;27;20476;-42
2023/10/17 08:44:31;;;;;;;;;;;;;;;;;;5078269;28;19936;-41
2023/10/17 08:46:57;;;;;;;;;;;;;;;;;;5094367;28;20046;-42
2023/10/17 08:49:22;;;;;;;;;;;;;;;;;;5092206;28;19932;-43
2023/10/17 08:51:48;;;;;;;;;;;;;;;;;;5091807;28;19992;-41
2023/10/17 08:54:13;;;;;;;;;;;;;;;;;;5090661;28;19927;-43
2023/10/17 08:56:39;;;;;;;;;;;;;;;;;;5095334;28;19971;-42
2023/10/17 08:59:04;;;;;;;;;;;;;;;;;;5100063;28;19924;-42
2023/10/17 09:01:30;;;;;;;;;;;;;;;;;;5097391;28;19985;-42
2023/10/17 09:03:55;;;;;;;;;;;;;;;;;;5093138;28;19940;-41
2023/10/17 09:08:55;;;;;;;;;;;;;;;;;;5088536;28;20336;-40
2023/10/17 09:11:41;;;;;;;;;;;;;;;;;;5092006;28;19970;-41
2023/10/17 09:14:39;;;;;;;;;;;;;;;;;;5082282;28;19993;-41
2023/10/17 09:16:51;;;;;;;;;;;;;;;;;;5072797;28;20295;-46
2023/10/17 09:19:21;;;;;;;;;;;;;;;;;;5097437;28;19928;-41
2023/10/17 09:21:47;;;;;;;;;;;;;;;;;;5095840;28;20070;-44
2023/10/17 09:24:14;;;;;;;;;;;;;;;;;;5099764;28;19963;-42
2023/10/17 09:26:40;;;;;;;;;;;;;;;;;;5093260;28;19978;-43
2023/10/17 09:29:05;;;;;;;;;;;;;;;;;;5095011;28;19952;-43
2023/10/17 09:31:31;;;;;;;;;;;;;;;;;;5096340;28;19932;-43
2023/10/17 09:33:56;;;;;;;;;;;;;;;;;;5097026;28;20325;-44
2023/10/17 09:36:25;;;;;;;;;;;;;;;;;;5091163;28;20171;-44
2023/10/17 09:38:50;;;;;;;;;;;;;;;;;;5079305;28;19942;-43
2023/10/17 09:41:17;;;;;;;;;;;;;;;;;;5081997;28;19924;-43
2023/10/17 09:43:44;;;;;;;;;;;;;;;;;;5081772;28;19955;-43
2023/10/17 09:46:10;;;;;;;;;;;;;;;;;;5072833;28;20144;-42
2023/10/17 09:48:35;;;;;;;;;;;;;;;;;;5059633;28;20463;-44
2023/10/17 09:51:01;;;;;;;;;;;;;;;;;;5063363;28;19978;-43
2023/10/17 09:53:28;;;;;;;;;;;;;;;;;;5054973;28;19929;-41
2023/10/17 09:55:55;;;;;;;;;;;;;;;;;;5060616;28;20124;-43
2023/10/17 09:58:21;;;;;;;;;;;;;;;;;;5065482;28;20054;-42
2023/10/17 10:00:46;;;;;;;;;;;;;;;;;;5065207;28;19928;-42
2023/10/17 10:03:12;;;;;;;;;;;;;;;;;;5066083;28;19939;-45
2023/10/17 10:05:42;;;;;;;;;;;;;;;;;;5065827;28;19928;-42
2023/10/17 10:08:07;;;;;;;;;;;;;;;;;;5066806;28;20715;-42
2023/10/17 10:10:34;;;;;;;;;;;;;;;;;;5059863;28;19936;-43
2023/10/17 10:13:01;;;;;;;;;;;;;;;;;;5070206;28;20035;-45
2023/10/17 10:15:26;;;;;;;;;;;;;;;;;;5068492;28;20235;-43
2023/10/17 10:17:53;;;;;;;;;;;;;;;;;;5069257;28;20344;-44
2023/10/17 10:20:18;;;;;;;;;;;;;;;;;;5067629;28;19932;-44
2023/10/17 10:22:45;;;;;;;;;;;;;;;;;;5068742;28;20010;-43
2023/10/17 10:25:10;;;;;;;;;;;;;;;;;;5067614;28;20023;-43
2023/10/17 10:27:35;;;;;;;;;;;;;;;;;;5065380;28;19954;-44
2023/10/17 10:30:01;;;;;;;;;;;;;;;;;;5067786;28;20058;-42
2023/10/17 10:32:26;;;;;;;;;;;;;;;;;;5059901;28;19938;-45
2023/10/17 10:34:52;;;;;;;;;;;;;;;;;;5062673;28;19932;-43
2023/10/17 10:37:17;;;;;;;;;;;;;;;;;;5063803;28;19928;-41
2023/10/17 10:39:44;;;;;;;;;;;;;;;;;;5064862;28;20133;-42
2023/10/17 10:42:10;;;;;;;;;;;;;;;;;;5042655;28;19928;-41
2023/10/17 10:44:35;;;;;;;;;;;;;;;;;;5064067;28;19935;-41
2023/10/17 10:47:03;;;;;;;;;;;;;;;;;;5060491;28;20280;-44
2023/10/17 10:49:30;;;;;;;;;;;;;;;;;;5049338;28;20400;-41
2023/10/17 10:51:58;;;;;;;;;;;;;;;;;;5070715;28;20015;-46
2023/10/17 10:54:23;;;;;;;;;;;;;;;;;;5075078;28;19932;-43
2023/10/17 10:56:49;;;;;;;;;;;;;;;;;;5066408;28;19984;-42
2023/10/17 10:59:14;;;;;;;;;;;;;;;;;;5066915;28;20070;-42
2023/10/17 11:01:40;;;;;;;;;;;;;;;;;;5063107;28;19932;-42
2023/10/17 11:04:07;;;;;;;;;;;;;;;;;;5062954;28;20578;-42
2023/10/17 11:06:35;;;;;;;;;;;;;;;;;;5064643;28;19932;-42
2023/10/17 11:09:02;;;;;;;;;;;;;;;;;;5065339;28;19932;-46
2023/10/17 11:11:27;;;;;;;;;;;;;;;;;;5059247;28;20132;-44
2023/10/17 11:13:54;;;;;;;;;;;;;;;;;;5060575;28;19931;-44
2023/10/17 11:16:20;;;;;;;;;;;;;;;;;;5059336;28;19939;-44
2023/10/17 11:18:46;;;;;;;;;;;;;;;;;;5058218;28;19939;-42
2023/10/17 11:21:11;;;;;;;;;;;;;;;;;;5060459;28;19924;-42
2023/10/17 11:23:37;;;;;;;;;;;;;;;;;;5058769;28;19938;-43
2023/10/17 11:26:03;;;;;;;;;;;;;;;;;;5063129;28;20074;-46
2023/10/17 11:28:46;;;;;;;;;;;;;;;;;;5063522;28;19959;-41
2023/10/17 11:31:13;;;;;;;;;;;;;;;;;;5063572;28;20026;-44
2023/10/17 11:33:45;;;;;;;;;;;;;;;;;;5064160;28;20724;-43
2023/10/17 11:36:16;;;;;;;;;;;;;;;;;;5064877;28;19955;-43
2023/10/17 11:38:43;;;;;;;;;;;;;;;;;;5062326;28;19935;-42
2023/10/17 11:41:10;;;;;;;;;;;;;;;;;;5058897;28;20315;-43
2023/10/17 11:43:35;;;;;;;;;;;;;;;;;;5071006;28;20395;-43
2023/10/17 11:46:01;;;;;;;;;;;;;;;;;;5072591;28;19927;-42
2023/10/17 11:48:27;;;;;;;;;;;;;;;;;;5069458;28;20369;-43
2023/10/17 11:50:53;;;;;;;;;;;;;;;;;;5075358;28;19924;-41
2023/10/17 11:53:18;;;;;;;;;;;;;;;;;;5070052;28;20052;-42
2023/10/17 11:55:45;;;;;;;;;;;;;;;;;;5072345;28;20262;-43
2023/10/17 11:58:11;;;;;;;;;;;;;;;;;;5073315;28;19928;-43
2023/10/17 12:00:36;;;;;;;;;;;;;;;;;;5080959;28;20396;-43
2023/10/17 12:03:02;;;;;;;;;;;;;;;;;;5073572;28;19926;-43
2023/10/17 12:05:28;;;;;;;;;;;;;;;;;;5074747;28;20043;-43
2023/10/17 12:07:54;;;;;;;;;;;;;;;;;;5071904;28;20209;-47
2023/10/17 12:10:19;;;;;;;;;;;;;;;;;;5080181;28;19932;-44
2023/10/17 12:12:45;;;;;;;;;;;;;;;;;;5077721;28;19931;-42
2023/10/17 12:15:13;;;;;;;;;;;;;;;;;;5070754;28;20001;-43
2023/10/17 12:17:39;;;;;;;;;;;;;;;;;;5076035;28;20440;-42
2023/10/17 12:20:12;;;;;;;;;;;;;;;;;;5071357;28;19924;-42
2023/10/17 12:22:37;;;;;;;;;;;;;;;;;;5075399;28;19924;-43
2023/10/17 12:25:04;;;;;;;;;;;;;;;;;;5075239;28;19985;-45
2023/10/17 12:27:30;;;;;;;;;;;;;;;;;;5071364;28;20433;-45
2023/10/17 12:29:56;;;;;;;;;;;;;;;;;;5078458;28;20019;-42
2023/10/17 12:32:22;;;;;;;;;;;;;;;;;;5076755;28;19983;-43
2023/10/17 12:34:49;;;;;;;;;;;;;;;;;;5073713;28;19924;-41
2023/10/17 12:37:17;;;;;;;;;;;;;;;;;;5071744;28;19974;-44
2023/10/17 12:39:42;;;;;;;;;;;;;;;;;;5073004;28;20019;-42
2023/10/17 12:42:08;;;;;;;;;;;;;;;;;;5070215;28;19942;-42
2023/10/17 12:44:33;;;;;;;;;;;;;;;;;;5069955;28;20337;-43
2023/10/17 12:46:59;;;;;;;;;;;;;;;;;;5069066;28;20659;-41
2023/10/17 12:49:25;;;;;;;;;;;;;;;;;;5067501;28;19929;-43
2023/10/17 12:51:52;;;;;;;;;;;;;;;;;;5068099;28;19940;-42
2023/10/17 12:54:18;;;;;;;;;;;;;;;;;;5069449;28;19978;-42
2023/10/17 12:56:43;;;;;;;;;;;;;;;;;;5071383;28;19924;-41
2023/10/17 12:59:16;;;;;;;;;;;;;;;;;;5069502;28;20026;-43
2023/10/17 13:01:41;;;;;;;;;;;;;;;;;;5072430;28;19933;-41
2023/10/17 13:04:09;;;;;;;;;;;;;;;;;;5070619;28;20443;-43
2023/10/17 13:06:35;;;;;;;;;;;;;;;;;;5070053;28;20053;-42
2023/10/17 13:09:01;;;;;;;;;;;;;;;;;;5069612;28;20037;-41
2023/10/17 13:11:26;;;;;;;;;;;;;;;;;;5072740;28;20011;-42
2023/10/17 13:13:52;;;;;;;;;;;;;;;;;;5068806;28;19976;-42
2023/10/17 13:16:17;;;;;;;;;;;;;;;;;;5068347;28;19924;-43
2023/10/17 13:18:44;;;;;;;;;;;;;;;;;;5070236;28;19931;-42
2023/10/17 13:21:13;;;;;;;;;;;;;;;;;;5069542;28;19936;-42
2023/10/17 13:23:39;;;;;;;;;;;;;;;;;;5067272;28;20450;-41
2023/10/17 13:26:05;;;;;;;;;;;;;;;;;;5058739;28;19939;-43
2023/10/17 13:28:30;;;;;;;;;;;;;;;;;;5064880;28;19982;-44
2023/10/17 13:30:58;;;;;;;;;;;;;;;;;;5071327;28;20308;-44
2023/10/17 13:33:23;;;;;;;;;;;;;;;;;;5071283;28;19932;-43
2023/10/17 13:35:49;;;;;;;;;;;;;;;;;;5069019;28;19932;-43
2023/10/17 13:38:16;;;;;;;;;;;;;;;;;;5069006;28;20324;-41
2023/10/17 13:40:41;;;;;;;;;;;;;;;;;;5070082;28;20352;-42
2023/10/17 13:43:07;;;;;;;;;;;;;;;;;;5074327;28;19925;-42
2023/10/17 13:45:39;;;;;;;;;;;;;;;;;;5076221;28;19924;-44
2023/10/17 13:48:06;;;;;;;;;;;;;;;;;;5080645;28;19924;-43
2023/10/17 13:50:31;;;;;;;;;;;;;;;;;;5075332;28;19997;-42
2023/10/17 13:53:06;;;;;;;;;;;;;;;;;;5079312;28;20586;-44
2023/10/17 13:55:32;;;;;;;;;;;;;;;;;;5074620;28;20023;-42
2023/10/17 13:58:04;;;;;;;;;;;;;;;;;;5072540;28;20278;-41
2023/10/17 14:00:42;;;;;;;;;;;;;;;;;;5076002;28;19931;-42
2023/10/17 14:03:07;;;;;;;;;;;;;;;;;;5074213;28;19924;-41
2023/10/17 14:05:33;;;;;;;;;;;;;;;;;;5070597;28;19951;-43
2023/10/17 14:07:59;;;;;;;;;;;;;;;;;;5077455;28;20023;-43
2023/10/17 14:10:24;;;;;;;;;;;;;;;;;;5070654;28;19924;-44
2023/10/17 14:12:50;;;;;;;;;;;;;;;;;;5077556;28;19928;-43
2023/10/17 14:15:15;;;;;;;;;;;;;;;;;;5081480;28;19928;-43
2023/10/17 14:17:45;;;;;;;;;;;;;;;;;;5080414;28;19963;-42
2023/10/17 14:20:28;;;;;;;;;;;;;;;;;;5079806;28;20318;-44
2023/10/17 14:23:08;;;;;;;;;;;;;;;;;;5078329;28;19962;-41
2023/10/17 14:26:07;;;;;;;;;;;;;;;;;;5077963;28;19925;-42
2023/10/17 14:28:19;;;;;;;;;;;;;;;;;;5068409;28;19963;-43
2023/10/17 14:30:44;;;;;;;;;;;;;;;;;;5084117;28;20052;-41
2023/10/17 14:33:10;;;;;;;;;;;;;;;;;;5086576;28;20132;-41
2023/10/17 14:35:35;;;;;;;;;;;;;;;;;;5086241;28;19978;-42
2023/10/17 14:38:01;;;;;;;;;;;;;;;;;;5085502;28;20336;-41
2023/10/17 14:40:27;;;;;;;;;;;;;;;;;;5086468;28;20011;-41
2023/10/17 14:42:53;;;;;;;;;;;;;;;;;;5086977;28;19939;-42
2023/10/17 14:45:18;;;;;;;;;;;;;;;;;;5087904;28;20284;-41
2023/10/17 14:47:44;;;;;;;;;;;;;;;;;;5087439;28;20019;-41
2023/10/17 14:50:09;;;;;;;;;;;;;;;;;;5088292;28;20435;-42
2023/10/17 14:52:34;;;;;;;;;;;;;;;;;;5064546;28;19928;-41
2023/10/17 14:55:02;;;;;;;;;;;;;;;;;;5067740;28;19994;-42
2023/10/17 14:57:28;;;;;;;;;;;;;;;;;;5077092;28;19958;-41
2023/10/17 14:59:54;;;;;;;;;;;;;;;;;;5088364;28;19939;-43
2023/10/17 15:02:19;;;;;;;;;;;;;;;;;;5088110;28;19971;-41
2023/10/17 15:04:46;;;;;;;;;;;;;;;;;;5081614;28;20010;-44
2023/10/17 15:07:12;;;;;;;;;;;;;;;;;;5087689;28;19938;-44
2023/10/17 15:09:37;;;;;;;;;;;;;;;;;;5087636;28;19924;-44
2023/10/17 15:12:03;;;;;;;;;;;;;;;;;;5087968;28;19924;-41
2023/10/17 15:14:29;;;;;;;;;;;;;;;;;;5088158;28;20259;-44
2023/10/17 15:16:54;;;;;;;;;;;;;;;;;;5088560;28;20015;-44
2023/10/17 15:19:20;;;;;;;;;;;;;;;;;;5088325;28;20003;-41
2023/10/17 15:21:46;;;;;;;;;;;;;;;;;;5088046;28;19931;-43
2023/10/17 15:24:12;;;;;;;;;;;;;;;;;;5088352;28;19981;-42
2023/10/17 15:26:38;;;;;;;;;;;;;;;;;;5087865;28;19928;-42
2023/10/17 15:29:03;;;;;;;;;;;;;;;;;;5094829;28;19924;-42
2023/10/17 15:31:29;;;;;;;;;;;;;;;;;;5085519;28;20552;-43
2023/10/17 15:33:55;;;;;;;;;;;;;;;;;;5085694;28;19960;-41
2023/10/17 15:36:20;;;;;;;;;;;;;;;;;;5087834;28;20227;-42
2023/10/17 15:38:46;;;;;;;;;;;;;;;;;;5075582;28;19967;-42
2023/10/17 15:41:11;;;;;;;;;;;;;;;;;;5067370;28;19929;-42
2023/10/17 15:43:37;;;;;;;;;;;;;;;;;;5067484;28;19924;-42
2023/10/17 15:46:03;;;;;;;;;;;;;;;;;;5067984;28;19939;-43
2023/10/17 15:48:29;;;;;;;;;;;;;;;;;;5076545;28;20027;-43
2023/10/17 15:50:55;;;;;;;;;;;;;;;;;;5084660;28;19925;-42
2023/10/17 15:53:20;;;;;;;;;;;;;;;;;;5087367;28;19990;-45
2023/10/17 15:55:47;;;;;;;;;;;;;;;;;;5088166;28;19961;-42
2023/10/17 15:58:12;;;;;;;;;;;;;;;;;;5082274;28;19967;-42
2023/10/17 16:00:38;;;;;;;;;;;;;;;;;;5068339;28;20344;-42
2023/10/17 16:03:03;;;;;;;;;;;;;;;;;;5067921;28;20015;-42
2023/10/17 16:05:30;;;;;;;;;;;;;;;;;;5068137;28;19925;-42
2023/10/17 16:07:56;;;;;;;;;;;;;;;;;;5075889;28;19967;-43
2023/10/17 16:10:21;;;;;;;;;;;;;;;;;;5084128;28;20023;-45
2023/10/17 16:12:47;;;;;;;;;;;;;;;;;;5087001;28;19924;-42
2023/10/17 16:15:13;;;;;;;;;;;;;;;;;;5087417;28;19935;-43
2023/10/17 16:17:38;;;;;;;;;;;;;;;;;;5087913;28;19924;-42
2023/10/17 16:20:06;;;;;;;;;;;;;;;;;;5087472;28;19971;-41
2023/10/17 16:22:31;;;;;;;;;;;;;;;;;;5085803;28;19928;-41
2023/10/17 16:24:57;;;;;;;;;;;;;;;;;;5087230;28;19979;-42
2023/10/17 16:27:22;;;;;;;;;;;;;;;;;;5087191;28;19924;-42
2023/10/17 16:29:48;;;;;;;;;;;;;;;;;;5087102;28;19924;-42
2023/10/17 16:32:13;;;;;;;;;;;;;;;;;;5083622;28;19935;-42
2023/10/17 16:34:39;;;;;;;;;;;;;;;;;;5086510;28;20026;-42
2023/10/17 16:37:04;;;;;;;;;;;;;;;;;;5087440;28;19974;-41
2023/10/17 16:39:31;;;;;;;;;;;;;;;;;;5070629;28;20324;-44
2023/10/17 16:41:57;;;;;;;;;;;;;;;;;;5067015;28;20009;-43
2023/10/17 16:44:22;;;;;;;;;;;;;;;;;;5066205;28;19954;-44
2023/10/17 16:46:48;;;;;;;;;;;;;;;;;;5067451;28;19939;-41
2023/10/17 16:49:14;;;;;;;;;;;;;;;;;;5086633;28;20406;-42
2023/10/17 16:51:40;;;;;;;;;;;;;;;;;;5066741;28;19931;-42
2023/10/17 16:54:05;;;;;;;;;;;;;;;;;;5066433;28;19932;-42
2023/10/17 16:56:33;;;;;;;;;;;;;;;;;;5066579;28;19924;-41
2023/10/17 16:58:58;;;;;;;;;;;;;;;;;;5084706;28;20293;-41
2023/10/17 17:01:24;;;;;;;;;;;;;;;;;;5085606;28;19928;-43
2023/10/17 17:03:49;;;;;;;;;;;;;;;;;;5089549;28;19924;-42
2023/10/17 17:06:15;;;;;;;;;;;;;;;;;;5089034;28;20007;-41
2023/10/17 17:08:41;;;;;;;;;;;;;;;;;;5089551;28;20279;-42
2023/10/17 17:11:07;;;;;;;;;;;;;;;;;;5088911;28;19939;-42
2023/10/17 17:13:33;;;;;;;;;;;;;;;;;;5089527;28;19967;-43
2023/10/17 17:15:58;;;;;;;;;;;;;;;;;;5088923;28;19967;-45
2023/10/17 17:18:24;;;;;;;;;;;;;;;;;;5087662;28;20490;-42
2023/10/17 17:21:10;;;;;;;;;;;;;;;;;;5054614;28;19924;-42
2023/10/17 17:23:36;;;;;;;;;;;;;;;;;;5073442;28;19947;-42
2023/10/17 17:26:03;;;;;;;;;;;;;;;;;;5090332;28;20640;-44
2023/10/17 17:28:28;;;;;;;;;;;;;;;;;;5089635;28;20347;-42
2023/10/17 17:30:54;;;;;;;;;;;;;;;;;;5090270;28;20011;-44
2023/10/17 17:33:20;;;;;;;;;;;;;;;;;;5089079;28;20472;-44
2023/10/17 17:35:45;;;;;;;;;;;;;;;;;;5089487;28;19970;-42
2023/10/17 17:38:10;;;;;;;;;;;;;;;;;;5090311;28;20161;-41
2023/10/17 17:40:36;;;;;;;;;;;;;;;;;;5089809;28;19924;-42
2023/10/17 17:43:03;;;;;;;;;;;;;;;;;;5088147;28;19924;-43
2023/10/17 17:45:28;;;;;;;;;;;;;;;;;;5089317;28;20011;-43
2023/10/17 17:47:53;;;;;;;;;;;;;;;;;;5089563;28;20011;-42
2023/10/17 17:50:19;;;;;;;;;;;;;;;;;;5085500;28;19928;-41
2023/10/17 17:52:44;;;;;;;;;;;;;;;;;;5089432;28;20378;-42
2023/10/17 17:55:12;;;;;;;;;;;;;;;;;;5089498;28;19928;-41
2023/10/17 17:57:37;;;;;;;;;;;;;;;;;;5089238;28;20251;-43
2023/10/17 18:00:03;;;;;;;;;;;;;;;;;;5090496;28;19928;-42
2023/10/17 18:02:29;;;;;;;;;;;;;;;;;;5089468;28;19924;-42
2023/10/17 18:04:54;;;;;;;;;;;;;;;;;;5088901;28;20282;-43
2023/10/17 18:07:20;;;;;;;;;;;;;;;;;;5089708;28;19970;-42
2023/10/17 18:09:47;;;;;;;;;;;;;;;;;;5070714;28;19928;-43
2023/10/17 18:12:14;;;;;;;;;;;;;;;;;;5073295;28;19932;-41
2023/10/17 18:14:40;;;;;;;;;;;;;;;;;;5087857;28;20040;-43
2023/10/17 18:17:05;;;;;;;;;;;;;;;;;;5089127;28;20398;-41
2023/10/17 18:19:32;;;;;;;;;;;;;;;;;;5089242;28;20414;-42
2023/10/17 18:21:57;;;;;;;;;;;;;;;;;;5088390;28;19963;-45
2023/10/17 18:24:23;;;;;;;;;;;;;;;;;;5075622;28;20073;-41
2023/10/17 18:26:48;;;;;;;;;;;;;;;;;;5068056;28;20424;-41
2023/10/17 18:29:14;;;;;;;;;;;;;;;;;;5085753;28;19947;-42
2023/10/17 18:31:40;;;;;;;;;;;;;;;;;;5088166;28;20272;-42
2023/10/17 18:34:06;;;;;;;;;;;;;;;;;;5088271;28;19935;-41
2023/10/17 18:36:31;;;;;;;;;;;;;;;;;;5088076;28;19924;-43